createdAt,value
2022-12-01T00:01:13.834Z,121.22
2022-12-01T00:03:40.815Z,120.03
2022-12-01T00:06:12.155Z,119.28
2022-12-01T00:08:39.125Z,129.13
2022-12-01T00:11:12.207Z,126.57
2022-12-01T00:13:39.038Z,126.32
2022-12-01T00:16:17.197Z,113.93
2022-12-01T00:18:44.301Z,124.53
2022-12-01T00:21:22.342Z,117.80
2022-12-01T00:23:51.778Z,141.90
2022-12-01T00:26:19.361Z,128.77
2022-12-01T00:28:54.110Z,120.82
2022-12-01T00:31:21.825Z,123.85
2022-12-01T00:33:48.694Z,128.95
2022-12-01T00:36:15.817Z,124.82
2022-12-01T00:38:42.643Z,117.55
2022-12-01T00:41:09.831Z,120.43
2022-12-01T00:43:36.703Z,116.07
2022-12-01T00:46:03.895Z,106.43
2022-12-01T00:48:30.750Z,103.35
2022-12-01T00:50:57.581Z,121.75
2022-12-01T00:53:24.747Z,127.75
2022-12-01T00:55:54.005Z,135.77
2022-12-01T00:58:21.532Z,108.75
2022-12-01T01:00:48.624Z,117.97
2022-12-01T01:03:15.826Z,124.75
2022-12-01T01:05:43.916Z,124.25
2022-12-01T01:08:13.001Z,117.95
2022-12-01T01:10:41.514Z,116.43
2022-12-01T01:13:08.722Z,118.30
2022-12-01T01:15:35.629Z,128.32
2022-12-01T01:18:02.670Z,110.45
2022-12-01T01:20:29.649Z,110.47
2022-12-01T01:22:56.497Z,117.57
2022-12-01T01:25:23.542Z,115.40
2022-12-01T01:27:51.014Z,109.38
2022-12-01T01:30:18.334Z,112.72
2022-12-01T01:32:45.189Z,110.40
2022-12-01T01:35:12.021Z,102.88
2022-12-01T01:37:38.740Z,108.88
2022-12-01T01:40:06.336Z,112.30
2022-12-01T01:42:33.110Z,117.82
2022-12-01T01:44:59.924Z,119.50
2022-12-01T01:47:29.616Z,119.45
2022-12-01T01:49:59.416Z,120.70
2022-12-01T01:52:28.025Z,121.97
2022-12-01T01:54:56.134Z,119.68
2022-12-01T01:57:28.491Z,125.82
2022-12-01T02:00:10.179Z,121.95
2022-12-01T02:02:47.608Z,123.88
2022-12-01T02:05:30.417Z,131.27
2022-12-01T02:07:59.452Z,127.57
2022-12-01T02:10:55.034Z,122.90
2022-12-01T02:13:28.049Z,123.13
2022-12-01T02:16:09.417Z,129.43
2022-12-01T02:18:57.339Z,151.52
2022-12-01T02:21:46.813Z,148.15
2022-12-01T02:24:44.685Z,157.65
2022-12-01T02:27:32.607Z,160.90
2022-12-01T02:30:09.913Z,181.38
2022-12-01T02:32:48.999Z,187.75
2022-12-01T02:35:15.664Z,192.10
2022-12-01T02:38:06.596Z,188.35
2022-12-01T02:40:45.339Z,189.23
2022-12-01T02:43:33.007Z,185.88
2022-12-01T02:46:03.999Z,182.10
2022-12-01T02:48:35.779Z,185.38
2022-12-01T02:51:20.601Z,184.90
2022-12-01T02:53:47.598Z,124.15
2022-12-01T02:56:16.111Z,177.85
2022-12-01T02:58:43.794Z,168.98
2022-12-01T03:01:43.643Z,164.23
2022-12-01T03:04:25.424Z,166.50
2022-12-01T03:07:16.304Z,164.65
2022-12-01T03:10:01.746Z,156.93
2022-12-01T03:15:31.180Z,154.47
2022-12-01T03:18:17.614Z,151.55
2022-12-01T03:20:57.319Z,148.07
2022-12-01T03:23:29.910Z,145.32
2022-12-01T03:25:58.986Z,152.32
2022-12-01T03:28:31.831Z,152.18
2022-12-01T03:31:04.222Z,153.00
2022-12-01T03:33:38.555Z,141.65
2022-12-01T03:36:09.156Z,145.90
2022-12-01T03:38:38.850Z,140.98
2022-12-01T03:41:10.889Z,150.68
2022-12-01T03:43:42.443Z,139.05
2022-12-01T03:46:29.388Z,147.38
2022-12-01T03:48:56.517Z,153.05
2022-12-01T03:51:48.397Z,145.63
2022-12-01T03:54:28.691Z,144.50
2022-12-01T03:57:04.061Z,153.27
2022-12-01T03:59:32.455Z,143.80
2022-12-01T04:01:59.264Z,144.38
2022-12-01T04:04:26.045Z,146.55
2022-12-01T04:06:53.274Z,140.40
2022-12-01T04:09:20.063Z,156.35
2022-12-01T04:12:05.197Z,138.68
2022-12-01T04:14:32.059Z,140.48
2022-12-01T04:16:58.835Z,145.07
2022-12-01T04:19:25.690Z,138.80
2022-12-01T04:21:52.497Z,140.48
2022-12-01T04:24:19.330Z,148.52
2022-12-01T04:26:46.260Z,150.88
2022-12-01T04:29:13.606Z,155.07
2022-12-01T04:31:40.627Z,152.98
2022-12-01T04:34:07.687Z,157.95
2022-12-01T04:36:35.024Z,160.43
2022-12-01T04:39:02.247Z,164.45
2022-12-01T04:41:28.941Z,164.73
2022-12-01T04:43:56.084Z,165.38
2022-12-01T04:46:23.591Z,163.88
2022-12-01T04:48:50.485Z,180.93
2022-12-01T04:51:17.462Z,173.63
2022-12-01T04:53:44.217Z,176.82
2022-12-01T04:56:11.063Z,168.05
2022-12-01T04:58:38.602Z,168.52
2022-12-01T05:01:07.950Z,169.13
2022-12-01T05:03:43.289Z,164.50
2022-12-01T05:06:12.824Z,163.65
2022-12-01T05:08:40.048Z,164.18
2022-12-01T05:11:08.492Z,159.82
2022-12-01T05:13:40.746Z,169.90
2022-12-01T05:16:10.251Z,155.88
2022-12-01T05:18:37.160Z,165.32
2022-12-01T05:21:06.158Z,162.85
2022-12-01T05:23:35.683Z,162.32
2022-12-01T05:26:04.119Z,154.88
2022-12-01T05:28:30.952Z,158.57
2022-12-01T05:30:58.139Z,164.55
2022-12-01T05:33:26.764Z,163.48
2022-12-01T05:35:53.898Z,160.95
2022-12-01T05:38:21.039Z,163.70
2022-12-01T05:40:52.407Z,165.13
2022-12-01T05:43:25.263Z,166.73
2022-12-01T05:45:55.547Z,164.82
2022-12-01T05:48:22.354Z,162.27
2022-12-01T05:50:49.165Z,162.60
2022-12-01T05:53:16.453Z,171.70
2022-12-01T05:55:43.410Z,162.02
2022-12-01T05:58:11.058Z,160.40
2022-12-01T06:00:45.252Z,166.05
2022-12-01T06:05:40.452Z,144.13
2022-12-01T06:08:08.017Z,163.07
2022-12-01T06:10:35.039Z,154.52
2022-12-01T06:13:01.800Z,163.70
2022-12-01T06:15:28.737Z,176.63
2022-12-01T06:17:58.530Z,171.38
2022-12-01T06:20:25.594Z,173.50
2022-12-01T06:22:52.362Z,167.70
2022-12-01T06:25:19.135Z,169.77
2022-12-01T06:27:45.949Z,167.13
2022-12-01T06:30:13.028Z,165.15
2022-12-01T06:32:39.829Z,180.32
2022-12-01T06:35:07.042Z,185.30
2022-12-01T06:37:33.837Z,182.80
2022-12-01T06:40:00.626Z,185.93
2022-12-01T06:42:30.540Z,188.20
2022-12-01T06:44:57.311Z,188.20
2022-12-01T06:47:24.011Z,201.75
2022-12-01T06:49:51.201Z,200.40
2022-12-01T06:52:18.233Z,188.68
2022-12-01T06:54:44.973Z,191.45
2022-12-01T06:57:12.056Z,199.45
2022-12-01T06:59:39.229Z,196.90
2022-12-01T07:02:06.194Z,177.63
2022-12-01T07:04:32.984Z,185.40
2022-12-01T07:06:59.835Z,204.80
2022-12-01T07:09:26.646Z,195.20
2022-12-01T07:11:53.398Z,210.13
2022-12-01T07:14:25.113Z,196.55
2022-12-01T07:16:52.472Z,204.82
2022-12-01T07:19:19.405Z,210.30
2022-12-01T07:21:46.254Z,202.95
2022-12-01T07:24:13.367Z,216.55
2022-12-01T07:26:41.238Z,224.85
2022-12-01T07:29:09.335Z,219.63
2022-12-01T07:31:37.615Z,229.60
2022-12-01T07:34:05.401Z,226.23
2022-12-01T07:36:32.250Z,229.65
2022-12-01T07:38:59.077Z,233.13
2022-12-01T07:41:25.984Z,246.20
2022-12-01T07:43:52.742Z,233.48
2022-12-01T07:46:23.579Z,230.95
2022-12-01T07:48:52.394Z,238.48
2022-12-01T07:51:19.785Z,247.25
2022-12-01T07:53:49.382Z,242.82
2022-12-01T07:56:17.508Z,236.85
2022-12-01T07:58:44.568Z,251.55
2022-12-01T08:01:19.645Z,252.20
2022-12-01T08:06:14.832Z,256.20
2022-12-01T08:08:42.713Z,246.70
2022-12-01T08:11:18.145Z,235.85
2022-12-01T08:13:45.268Z,241.48
2022-12-01T08:16:15.454Z,231.80
2022-12-01T08:18:43.145Z,232.35
2022-12-01T08:21:12.889Z,240.27
2022-12-01T08:23:42.105Z,222.15
2022-12-01T08:26:13.032Z,213.27
2022-12-01T08:28:40.610Z,216.25
2022-12-01T08:31:13.507Z,208.35
2022-12-01T08:33:40.343Z,209.52
2022-12-01T08:36:08.067Z,188.98
2022-12-01T08:38:35.212Z,172.75
2022-12-01T08:41:09.533Z,168.27
2022-12-01T08:46:31.004Z,158.45
2022-12-01T08:48:58.324Z,157.88
2022-12-01T08:51:25.971Z,145.35
2022-12-01T08:53:53.246Z,148.45
2022-12-01T08:56:46.407Z,150.52
2022-12-01T08:59:13.479Z,146.90
2022-12-01T09:01:53.004Z,150.63
2022-12-01T09:04:25.790Z,152.20
2022-12-01T09:06:54.990Z,168.85
2022-12-01T09:09:25.149Z,159.15
2022-12-01T09:11:54.698Z,163.23
2022-12-01T09:14:22.889Z,163.52
2022-12-01T09:16:50.772Z,167.48
2022-12-01T09:19:24.031Z,162.73
2022-12-01T09:21:52.397Z,124.35
2022-12-01T09:24:19.195Z,168.85
2022-12-01T09:26:46.068Z,164.40
2022-12-01T09:29:14.954Z,154.45
2022-12-01T09:31:42.685Z,166.57
2022-12-01T09:34:16.102Z,154.90
2022-12-01T09:36:42.931Z,150.95
2022-12-01T09:39:13.585Z,150.93
2022-12-01T09:41:40.428Z,154.15
2022-12-01T09:44:31.511Z,146.73
2022-12-01T09:47:22.786Z,147.40
2022-12-01T09:50:25.336Z,150.55
2022-12-01T09:52:57.686Z,146.73
2022-12-01T09:55:26.211Z,144.93
2022-12-01T09:57:56.430Z,145.23
2022-12-01T10:00:26.041Z,135.07
2022-12-01T10:03:33.465Z,135.15
2022-12-01T10:09:44.345Z,127.78
2022-12-01T10:12:27.845Z,124.13
2022-12-01T10:15:18.436Z,144.02
2022-12-01T10:18:05.815Z,132.05
2022-12-01T10:20:56.980Z,129.48
2022-12-01T10:23:47.004Z,137.07
2022-12-01T10:26:19.556Z,125.50
2022-12-01T10:28:46.720Z,125.32
2022-12-01T10:31:29.087Z,125.32
2022-12-01T10:34:15.915Z,117.55
2022-12-01T10:36:42.834Z,120.30
2022-12-01T10:39:28.982Z,121.47
2022-12-01T10:42:04.374Z,125.57
2022-12-01T10:44:31.471Z,111.88
2022-12-01T10:46:58.366Z,113.93
2022-12-01T10:49:40.249Z,114.35
2022-12-01T10:52:08.279Z,108.30
2022-12-01T10:54:40.291Z,115.93
2022-12-01T10:57:17.491Z,103.50
2022-12-01T11:00:06.587Z,115.90
2022-12-01T11:02:34.807Z,115.72
2022-12-01T11:05:07.242Z,105.63
2022-12-01T11:07:43.095Z,103.43
2022-12-01T11:10:31.664Z,110.32
2022-12-01T11:13:01.183Z,102.70
2022-12-01T11:15:31.354Z,114.10
2022-12-01T11:18:07.906Z,97.00
2022-12-01T11:20:36.519Z,106.20
2022-12-01T11:23:18.520Z,102.18
2022-12-01T11:26:10.626Z,101.22
2022-12-01T11:28:49.949Z,110.45
2022-12-01T11:31:17.123Z,104.97
2022-12-01T11:33:50.035Z,106.50
2022-12-01T11:36:34.728Z,102.25
2022-12-01T11:39:02.525Z,113.72
2022-12-01T11:41:39.417Z,105.40
2022-12-01T11:44:43.130Z,106.45
2022-12-01T11:47:23.988Z,105.90
2022-12-01T11:50:00.696Z,107.00
2022-12-01T11:52:33.966Z,106.65
2022-12-01T11:55:08.390Z,108.40
2022-12-01T11:57:37.719Z,107.88
2022-12-01T12:00:25.963Z,105.55
2022-12-01T12:03:31.944Z,106.30
2022-12-01T12:06:38.494Z,106.70
2022-12-01T12:09:02.888Z,108.28
2022-12-01T12:11:46.797Z,107.65
2022-12-01T12:14:22.208Z,105.63
2022-12-01T12:16:58.072Z,99.30
2022-12-01T12:20:14.315Z,97.88
2022-12-01T12:23:05.512Z,101.85
2022-12-01T12:26:09.352Z,107.97
2022-12-01T12:28:57.593Z,111.75
2022-12-01T12:31:31.071Z,112.90
2022-12-01T12:34:25.954Z,122.45
2022-12-01T12:37:01.385Z,93.47
2022-12-01T12:39:58.931Z,115.55
2022-12-01T12:42:48.555Z,112.60
2022-12-01T12:45:47.367Z,114.30
2022-12-01T12:49:12.031Z,120.15
2022-12-01T12:52:02.586Z,124.85
2022-12-01T12:55:00.350Z,122.10
2022-12-01T12:57:35.258Z,137.60
2022-12-01T13:00:08.413Z,119.50
2022-12-01T13:02:49.216Z,129.48
2022-12-01T13:05:46.057Z,135.88
2022-12-01T13:08:42.459Z,127.90
2022-12-01T13:11:30.107Z,136.70
2022-12-01T13:14:11.654Z,126.30
2022-12-01T13:16:44.163Z,120.07
2022-12-01T13:19:35.541Z,127.90
2022-12-01T13:22:02.933Z,120.43
2022-12-01T13:24:31.333Z,145.32
2022-12-01T13:27:02.737Z,124.80
2022-12-01T13:29:34.164Z,131.82
2022-12-01T13:32:01.904Z,123.00
2022-12-01T13:34:40.929Z,126.70
2022-12-01T13:37:09.915Z,126.03
2022-12-01T13:39:39.024Z,132.02
2022-12-01T13:42:26.880Z,127.32
2022-12-01T13:44:58.440Z,130.50
2022-12-01T13:47:43.845Z,126.05
2022-12-01T13:53:23.617Z,84.32
2022-12-01T13:56:23.564Z,109.38
2022-12-01T13:58:52.848Z,125.85
2022-12-01T14:01:23.220Z,130.85
2022-12-01T14:03:57.828Z,115.55
2022-12-01T14:06:46.600Z,96.50
2022-12-01T14:09:39.540Z,131.15
2022-12-01T14:12:19.362Z,130.13
2022-12-01T14:15:03.267Z,128.90
2022-12-01T14:17:37.271Z,144.40
2022-12-01T14:20:20.135Z,135.98
2022-12-01T14:23:07.839Z,134.05
2022-12-01T14:25:34.925Z,149.55
2022-12-01T14:28:03.940Z,154.05
2022-12-01T14:30:45.041Z,151.23
2022-12-01T14:33:40.111Z,154.38
2022-12-01T14:36:22.997Z,137.88
2022-12-01T14:38:57.719Z,136.25
2022-12-01T14:41:30.454Z,142.05
2022-12-01T14:44:06.616Z,141.23
2022-12-01T14:46:54.696Z,152.20
2022-12-01T14:49:31.251Z,141.00
2022-12-01T14:52:06.434Z,151.27
2022-12-01T14:54:46.589Z,143.20
2022-12-01T14:57:17.496Z,142.20
2022-12-01T14:59:45.062Z,141.27
2022-12-01T15:02:13.459Z,138.98
2022-12-01T15:05:09.346Z,123.85
2022-12-01T15:10:04.929Z,124.40
2022-12-01T15:12:32.255Z,135.45
2022-12-01T15:14:59.384Z,151.15
2022-12-01T15:17:34.623Z,141.68
2022-12-01T15:20:01.590Z,138.10
2022-12-01T15:22:31.549Z,141.77
2022-12-01T15:25:15.711Z,136.05
2022-12-01T15:27:43.668Z,136.27
2022-12-01T15:30:15.286Z,127.85
2022-12-01T15:32:45.819Z,123.25
2022-12-01T15:35:23.734Z,120.38
2022-12-01T15:37:52.617Z,132.38
2022-12-01T15:43:21.158Z,116.43
2022-12-01T15:46:01.303Z,122.78
2022-12-01T15:48:34.370Z,118.93
2022-12-01T15:51:03.780Z,128.25
2022-12-01T15:53:33.489Z,129.02
2022-12-01T15:56:04.667Z,121.30
2022-12-01T15:58:36.276Z,114.63
2022-12-01T16:01:11.003Z,119.20
2022-12-01T16:03:55.033Z,119.82
2022-12-01T16:06:28.762Z,114.82
2022-12-01T16:09:03.169Z,125.90
2022-12-01T16:11:30.431Z,112.82
2022-12-01T16:14:21.479Z,115.80
2022-12-01T16:16:49.956Z,124.35
2022-12-01T16:19:17.047Z,120.03
2022-12-01T16:21:49.704Z,120.45
2022-12-01T16:24:20.925Z,119.38
2022-12-01T16:26:52.061Z,114.50
2022-12-01T16:29:24.053Z,114.70
2022-12-01T16:32:18.724Z,113.38
2022-12-01T16:34:46.936Z,113.38
2022-12-01T16:37:14.711Z,114.13
2022-12-01T16:39:42.101Z,109.55
2022-12-01T16:42:14.434Z,116.40
2022-12-01T16:44:43.474Z,118.78
2022-12-01T16:47:23.195Z,127.28
2022-12-01T16:49:50.626Z,119.50
2022-12-01T16:55:12.100Z,122.63
2022-12-01T16:57:38.968Z,124.65
2022-12-01T17:00:06.820Z,119.75
2022-12-01T17:02:33.727Z,140.30
2022-12-01T17:05:00.503Z,133.07
2022-12-01T17:07:27.499Z,126.60
2022-12-01T17:09:54.350Z,137.27
2022-12-01T17:12:25.204Z,123.28
2022-12-01T17:14:52.288Z,120.03
2022-12-01T17:17:19.314Z,132.48
2022-12-01T17:19:46.182Z,139.35
2022-12-01T17:22:13.094Z,136.43
2022-12-01T17:24:39.950Z,122.00
2022-12-01T17:27:06.908Z,147.20
2022-12-01T17:29:34.132Z,145.82
2022-12-01T17:32:01.248Z,147.15
2022-12-01T17:34:28.304Z,150.48
2022-12-01T17:36:55.201Z,155.38
2022-12-01T17:39:22.435Z,140.73
2022-12-01T17:41:49.275Z,144.05
2022-12-01T17:44:16.169Z,147.38
2022-12-01T17:46:42.935Z,159.65
2022-12-01T17:49:10.670Z,151.75
2022-12-01T17:51:38.010Z,152.50
2022-12-01T17:54:05.427Z,149.40
2022-12-01T17:56:32.726Z,145.68
2022-12-01T17:58:59.598Z,145.13
2022-12-01T18:01:30.163Z,151.93
2022-12-01T18:03:59.027Z,139.85
2022-12-01T18:06:27.053Z,149.93
2022-12-01T18:08:54.334Z,146.32
2022-12-01T18:11:22.159Z,139.50
2022-12-01T18:13:51.053Z,147.20
2022-12-01T18:16:27.325Z,151.02
2022-12-01T18:18:55.356Z,160.35
2022-12-01T18:21:23.997Z,134.65
2022-12-01T18:23:52.809Z,153.43
2022-12-01T18:26:21.866Z,147.57
2022-12-01T18:29:00.887Z,143.90
2022-12-01T18:31:29.181Z,150.93
2022-12-01T18:33:59.367Z,150.50
2022-12-01T18:36:26.467Z,145.65
2022-12-01T18:38:54.644Z,147.20
2022-12-01T18:41:21.454Z,160.13
2022-12-01T18:43:48.293Z,161.52
2022-12-01T18:46:17.429Z,169.32
2022-12-01T18:48:50.616Z,171.95
2022-12-01T18:51:18.415Z,153.07
2022-12-01T18:53:45.719Z,170.35
2022-12-01T18:56:15.187Z,157.48
2022-12-01T18:58:43.029Z,163.90
2022-12-01T19:01:24.800Z,180.10
2022-12-01T19:03:51.851Z,162.88
2022-12-01T19:06:18.678Z,178.65
2022-12-01T19:08:45.765Z,152.15
2022-12-01T19:11:12.866Z,162.45
2022-12-01T19:13:39.950Z,158.35
2022-12-01T19:16:09.165Z,175.98
2022-12-01T19:18:37.317Z,159.32
2022-12-01T19:21:06.164Z,171.60
2022-12-01T19:23:34.443Z,166.10
2022-12-01T19:26:06.157Z,170.90
2022-12-01T19:28:34.922Z,153.05
2022-12-01T19:31:11.274Z,172.20
2022-12-01T19:33:38.577Z,164.27
2022-12-01T19:36:07.460Z,179.52
2022-12-01T19:38:34.352Z,174.85
2022-12-01T19:41:01.725Z,175.73
2022-12-01T19:43:28.973Z,183.55
2022-12-01T19:45:55.856Z,174.52
2022-12-01T19:48:22.808Z,181.48
2022-12-01T19:50:49.667Z,195.40
2022-12-01T19:53:16.775Z,175.73
2022-12-01T19:55:43.750Z,173.18
2022-12-01T19:58:10.603Z,169.32
2022-12-01T20:00:37.604Z,180.10
2022-12-01T20:03:04.677Z,178.20
2022-12-01T20:05:32.958Z,182.80
2022-12-01T20:08:01.798Z,188.88
2022-12-01T20:10:29.048Z,190.50
2022-12-01T20:12:55.968Z,183.90
2022-12-01T20:15:22.777Z,189.35
2022-12-01T20:17:50.373Z,193.70
2022-12-01T20:20:17.815Z,193.55
2022-12-01T20:22:44.707Z,197.55
2022-12-01T20:25:11.826Z,195.90
2022-12-01T20:27:39.720Z,192.25
2022-12-01T20:30:07.236Z,218.60
2022-12-01T20:32:34.354Z,206.15
2022-12-01T20:35:01.908Z,195.13
2022-12-01T20:37:28.819Z,212.98
2022-12-01T20:39:55.919Z,206.07
2022-12-01T20:42:24.575Z,192.90
2022-12-01T20:44:52.076Z,207.30
2022-12-01T20:47:22.443Z,208.73
2022-12-01T20:49:52.012Z,184.13
2022-12-01T20:52:21.043Z,208.35
2022-12-01T20:54:48.468Z,205.75
2022-12-01T20:57:15.810Z,199.40
2022-12-01T20:59:43.026Z,196.90
2022-12-01T21:02:10.761Z,197.88
2022-12-01T21:04:37.783Z,200.25
2022-12-01T21:07:04.973Z,192.18
2022-12-01T21:09:32.074Z,202.45
2022-12-01T21:12:20.375Z,194.20
2022-12-01T21:15:27.516Z,206.65
2022-12-01T21:18:00.904Z,212.45
2022-12-01T21:20:32.671Z,207.80
2022-12-01T21:23:13.036Z,206.15
2022-12-01T21:25:41.482Z,196.30
2022-12-01T21:28:19.165Z,224.55
2022-12-01T21:30:50.342Z,211.50
2022-12-01T21:33:27.009Z,223.82
2022-12-01T21:35:55.107Z,203.00
2022-12-01T21:38:22.372Z,226.57
2022-12-01T21:40:49.537Z,221.35
2022-12-01T21:43:22.749Z,225.90
2022-12-01T21:46:00.349Z,211.75
2022-12-01T21:48:34.520Z,224.68
2022-12-01T21:51:06.952Z,179.80
2022-12-01T21:53:37.623Z,232.60
2022-12-01T21:56:04.695Z,242.52
2022-12-01T21:58:37.111Z,212.27
2022-12-01T22:01:21.397Z,278.42
2022-12-01T22:03:48.577Z,226.63
2022-12-01T22:06:30.782Z,234.88
2022-12-01T22:09:10.647Z,226.50
2022-12-01T22:11:37.796Z,245.05
2022-12-01T22:14:18.816Z,220.52
2022-12-01T22:16:55.851Z,248.27
2022-12-01T22:19:33.779Z,250.85
2022-12-01T22:22:22.331Z,242.85
2022-12-01T22:24:58.258Z,227.15
2022-12-01T22:27:37.986Z,234.18
2022-12-01T22:30:07.896Z,232.70
2022-12-01T22:32:47.954Z,237.45
2022-12-01T22:35:26.621Z,231.45
2022-12-01T22:38:00.832Z,221.38
2022-12-01T22:40:32.271Z,236.70
2022-12-01T22:43:15.901Z,208.75
2022-12-01T22:45:44.157Z,236.00
2022-12-01T22:48:25.734Z,225.55
2022-12-01T22:50:52.538Z,224.25
2022-12-01T22:53:26.272Z,222.45
2022-12-01T22:55:55.849Z,203.25
2022-12-01T22:58:30.250Z,205.98
2022-12-01T23:01:02.450Z,142.63
2022-12-01T23:03:29.356Z,200.70
2022-12-01T23:05:57.689Z,200.77
2022-12-01T23:08:24.505Z,185.13
2022-12-01T23:10:52.247Z,214.75
2022-12-01T23:13:22.617Z,192.93
2022-12-01T23:15:51.881Z,185.77
2022-12-01T23:18:31.634Z,194.20
2022-12-01T23:21:02.176Z,205.38
2022-12-01T23:23:31.412Z,184.73
2022-12-01T23:26:00.431Z,182.15
2022-12-01T23:28:29.210Z,193.35
2022-12-01T23:30:58.422Z,204.93
2022-12-01T23:33:31.346Z,181.30
2022-12-01T23:36:20.637Z,164.38
2022-12-01T23:38:50.220Z,184.52
2022-12-01T23:41:25.431Z,181.38
2022-12-01T23:43:55.364Z,164.90
2022-12-01T23:46:24.878Z,171.77
2022-12-01T23:49:01.394Z,176.10
2022-12-01T23:51:35.223Z,138.07
2022-12-01T23:54:10.214Z,153.43
2022-12-01T23:59:09.936Z,145.35
